sensor_id;sensor_type;location;lat;lon;timestamp;P1;durP1;ratioP1;P2;durP2;ratioP2
26756;SDS011;23848;49.798;10.228;2023-09-19T00:00:39;0.80;;;0.45;;
26756;SDS011;23848;49.798;10.228;2023-09-19T00:03:08;1.08;;;0.40;;
26756;SDS011;23848;49.798;10.228;2023-09-19T00:05:38;1.17;;;0.43;;
26756;SDS011;23848;49.798;10.228;2023-09-19T00:08:11;1.27;;;0.45;;
26756;SDS011;23848;49.798;10.228;2023-09-19T00:10:41;0.30;;;0.22;;
26756;SDS011;23848;49.798;10.228;2023-09-19T00:13:10;0.82;;;0.30;;
26756;SDS011;23848;49.798;10.228;2023-09-19T00:15:43;1.63;;;0.60;;
26756;SDS011;23848;49.798;10.228;2023-09-19T00:18:15;1.00;;;0.40;;
26756;SDS011;23848;49.798;10.228;2023-09-19T00:20:45;0.95;;;0.38;;
26756;SDS011;23848;49.798;10.228;2023-09-19T00:23:14;3.20;;;0.60;;
26756;SDS011;23848;49.798;10.228;2023-09-19T00:25:43;0.85;;;0.35;;
26756;SDS011;23848;49.798;10.228;2023-09-19T00:28:11;0.68;;;0.30;;
26756;SDS011;23848;49.798;10.228;2023-09-19T00:30:43;0.90;;;0.40;;
26756;SDS011;23848;49.798;10.228;2023-09-19T00:33:11;0.82;;;0.40;;
26756;SDS011;23848;49.798;10.228;2023-09-19T00:35:46;1.02;;;0.40;;
26756;SDS011;23848;49.798;10.228;2023-09-19T00:38:14;1.45;;;0.40;;
26756;SDS011;23848;49.798;10.228;2023-09-19T00:40:43;1.15;;;0.60;;
26756;SDS011;23848;49.798;10.228;2023-09-19T00:43:12;1.25;;;0.35;;
26756;SDS011;23848;49.798;10.228;2023-09-19T00:45:42;1.15;;;0.50;;
26756;SDS011;23848;49.798;10.228;2023-09-19T00:48:13;1.75;;;0.95;;
26756;SDS011;23848;49.798;10.228;2023-09-19T00:50:41;1.95;;;0.70;;
26756;SDS011;23848;49.798;10.228;2023-09-19T00:53:10;1.13;;;0.40;;
26756;SDS011;23848;49.798;10.228;2023-09-19T00:55:41;0.93;;;0.50;;
26756;SDS011;23848;49.798;10.228;2023-09-19T00:58:10;1.73;;;0.60;;
26756;SDS011;23848;49.798;10.228;2023-09-19T01:00:39;1.33;;;0.40;;
26756;SDS011;23848;49.798;10.228;2023-09-19T01:03:11;1.02;;;0.50;;
26756;SDS011;23848;49.798;10.228;2023-09-19T01:05:42;0.93;;;0.55;;
26756;SDS011;23848;49.798;10.228;2023-09-19T01:08:10;0.70;;;0.32;;
26756;SDS011;23848;49.798;10.228;2023-09-19T01:10:39;1.52;;;0.50;;
26756;SDS011;23848;49.798;10.228;2023-09-19T01:13:13;1.20;;;0.40;;
26756;SDS011;23848;49.798;10.228;2023-09-19T01:15:44;0.93;;;0.43;;
26756;SDS011;23848;49.798;10.228;2023-09-19T01:18:16;0.93;;;0.52;;
26756;SDS011;23848;49.798;10.228;2023-09-19T01:20:53;1.42;;;0.60;;
26756;SDS011;23848;49.798;10.228;2023-09-19T01:23:29;0.70;;;0.40;;
26756;SDS011;23848;49.798;10.228;2023-09-19T01:28:53;0.90;;;0.60;;
26756;SDS011;23848;49.798;10.228;2023-09-19T01:31:22;1.05;;;0.50;;
26756;SDS011;23848;49.798;10.228;2023-09-19T01:33:55;0.80;;;0.40;;
26756;SDS011;23848;49.798;10.228;2023-09-19T01:36:23;0.75;;;0.45;;
26756;SDS011;23848;49.798;10.228;2023-09-19T01:38:52;0.90;;;0.38;;
26756;SDS011;23848;49.798;10.228;2023-09-19T01:41:22;1.13;;;0.47;;
26756;SDS011;23848;49.798;10.228;2023-09-19T01:43:54;2.78;;;0.82;;
26756;SDS011;23848;49.798;10.228;2023-09-19T01:46:25;0.80;;;0.40;;
26756;SDS011;23848;49.798;10.228;2023-09-19T01:48:57;0.93;;;0.50;;
26756;SDS011;23848;49.798;10.228;2023-09-19T01:51:32;0.77;;;0.40;;
26756;SDS011;23848;49.798;10.228;2023-09-19T01:54:02;1.08;;;0.40;;
26756;SDS011;23848;49.798;10.228;2023-09-19T01:56:34;1.02;;;0.40;;
26756;SDS011;23848;49.798;10.228;2023-09-19T01:59:06;1.10;;;0.50;;
26756;SDS011;23848;49.798;10.228;2023-09-19T02:01:37;1.20;;;0.50;;
26756;SDS011;23848;49.798;10.228;2023-09-19T02:04:06;1.35;;;0.50;;
26756;SDS011;23848;49.798;10.228;2023-09-19T02:06:39;0.55;;;0.43;;
26756;SDS011;23848;49.798;10.228;2023-09-19T02:09:07;1.42;;;0.60;;
26756;SDS011;23848;49.798;10.228;2023-09-19T02:11:36;1.60;;;0.70;;
26756;SDS011;23848;49.798;10.228;2023-09-19T02:14:04;1.42;;;0.70;;
26756;SDS011;23848;49.798;10.228;2023-09-19T02:16:34;1.40;;;0.70;;
26756;SDS011;23848;49.798;10.228;2023-09-19T02:19:05;1.67;;;0.70;;
26756;SDS011;23848;49.798;10.228;2023-09-19T02:21:34;1.60;;;0.80;;
26756;SDS011;23848;49.798;10.228;2023-09-19T02:24:02;1.15;;;0.52;;
26756;SDS011;23848;49.798;10.228;2023-09-19T02:26:31;1.92;;;0.73;;
26756;SDS011;23848;49.798;10.228;2023-09-19T02:29:02;1.67;;;0.88;;
26756;SDS011;23848;49.798;10.228;2023-09-19T02:31:31;1.83;;;0.80;;
26756;SDS011;23848;49.798;10.228;2023-09-19T02:34:00;2.60;;;0.98;;
26756;SDS011;23848;49.798;10.228;2023-09-19T02:36:28;2.50;;;1.00;;
26756;SDS011;23848;49.798;10.228;2023-09-19T02:38:57;1.52;;;0.77;;
26756;SDS011;23848;49.798;10.228;2023-09-19T02:41:25;1.52;;;0.90;;
26756;SDS011;23848;49.798;10.228;2023-09-19T02:43:55;1.58;;;1.00;;
26756;SDS011;23848;49.798;10.228;2023-09-19T02:46:25;3.05;;;1.02;;
26756;SDS011;23848;49.798;10.228;2023-09-19T02:48:53;2.05;;;0.90;;
26756;SDS011;23848;49.798;10.228;2023-09-19T02:51:22;2.13;;;1.20;;
26756;SDS011;23848;49.798;10.228;2023-09-19T02:53:52;1.52;;;0.90;;
26756;SDS011;23848;49.798;10.228;2023-09-19T02:56:20;2.15;;;1.33;;
26756;SDS011;23848;49.798;10.228;2023-09-19T02:58:51;1.77;;;0.90;;
26756;SDS011;23848;49.798;10.228;2023-09-19T03:01:21;2.03;;;1.10;;
26756;SDS011;23848;49.798;10.228;2023-09-19T03:03:50;1.58;;;1.00;;
26756;SDS011;23848;49.798;10.228;2023-09-19T03:06:19;3.58;;;1.60;;
26756;SDS011;23848;49.798;10.228;2023-09-19T03:08:48;2.33;;;1.48;;
26756;SDS011;23848;49.798;10.228;2023-09-19T03:11:19;1.67;;;1.20;;
26756;SDS011;23848;49.798;10.228;2023-09-19T03:13:52;1.73;;;1.20;;
26756;SDS011;23848;49.798;10.228;2023-09-19T03:16:21;2.95;;;1.40;;
26756;SDS011;23848;49.798;10.228;2023-09-19T03:18:49;2.42;;;1.33;;
26756;SDS011;23848;49.798;10.228;2023-09-19T03:21:18;1.77;;;1.25;;
26756;SDS011;23848;49.798;10.228;2023-09-19T03:23:48;1.75;;;1.20;;
26756;SDS011;23848;49.798;10.228;2023-09-19T03:26:16;2.20;;;1.58;;
26756;SDS011;23848;49.798;10.228;2023-09-19T03:28:47;2.92;;;1.60;;
26756;SDS011;23848;49.798;10.228;2023-09-19T03:31:15;2.80;;;1.67;;
26756;SDS011;23848;49.798;10.228;2023-09-19T03:33:44;2.63;;;1.90;;
26756;SDS011;23848;49.798;10.228;2023-09-19T03:36:12;2.75;;;1.70;;
26756;SDS011;23848;49.798;10.228;2023-09-19T03:38:40;2.50;;;1.60;;
26756;SDS011;23848;49.798;10.228;2023-09-19T03:41:09;3.75;;;2.10;;
26756;SDS011;23848;49.798;10.228;2023-09-19T03:43:40;3.15;;;2.15;;
26756;SDS011;23848;49.798;10.228;2023-09-19T03:46:10;3.08;;;1.95;;
26756;SDS011;23848;49.798;10.228;2023-09-19T03:48:39;2.70;;;2.13;;
26756;SDS011;23848;49.798;10.228;2023-09-19T03:51:09;3.83;;;2.40;;
26756;SDS011;23848;49.798;10.228;2023-09-19T03:53:37;4.53;;;2.17;;
26756;SDS011;23848;49.798;10.228;2023-09-19T03:56:06;3.95;;;2.30;;
26756;SDS011;23848;49.798;10.228;2023-09-19T03:58:35;3.38;;;2.22;;
26756;SDS011;23848;49.798;10.228;2023-09-19T04:01:05;3.13;;;2.20;;
26756;SDS011;23848;49.798;10.228;2023-09-19T04:03:35;3.22;;;2.15;;
26756;SDS011;23848;49.798;10.228;2023-09-19T04:06:13;4.70;;;2.60;;
26756;SDS011;23848;49.798;10.228;2023-09-19T04:08:42;4.10;;;2.17;;
26756;SDS011;23848;49.798;10.228;2023-09-19T04:11:11;3.58;;;2.65;;
26756;SDS011;23848;49.798;10.228;2023-09-19T04:13:39;3.20;;;2.22;;
26756;SDS011;23848;49.798;10.228;2023-09-19T04:16:08;4.50;;;2.50;;
26756;SDS011;23848;49.798;10.228;2023-09-19T04:18:38;2.95;;;1.95;;
26756;SDS011;23848;49.798;10.228;2023-09-19T04:21:06;2.53;;;1.77;;
26756;SDS011;23848;49.798;10.228;2023-09-19T04:23:35;2.88;;;1.90;;
26756;SDS011;23848;49.798;10.228;2023-09-19T04:26:03;3.15;;;1.80;;
26756;SDS011;23848;49.798;10.228;2023-09-19T04:28:32;3.75;;;1.67;;
26756;SDS011;23848;49.798;10.228;2023-09-19T04:31:02;2.47;;;1.50;;
26756;SDS011;23848;49.798;10.228;2023-09-19T04:33:31;2.78;;;1.38;;
26756;SDS011;23848;49.798;10.228;2023-09-19T04:36:03;2.92;;;1.35;;
26756;SDS011;23848;49.798;10.228;2023-09-19T04:38:53;2.28;;;1.20;;
26756;SDS011;23848;49.798;10.228;2023-09-19T04:41:22;2.55;;;0.95;;
26756;SDS011;23848;49.798;10.228;2023-09-19T04:43:50;2.28;;;1.30;;
26756;SDS011;23848;49.798;10.228;2023-09-19T04:46:19;1.83;;;1.08;;
26756;SDS011;23848;49.798;10.228;2023-09-19T04:48:47;2.30;;;1.05;;
26756;SDS011;23848;49.798;10.228;2023-09-19T04:51:17;2.10;;;1.25;;
26756;SDS011;23848;49.798;10.228;2023-09-19T04:53:46;2.10;;;1.20;;
26756;SDS011;23848;49.798;10.228;2023-09-19T04:56:15;2.20;;;1.00;;
26756;SDS011;23848;49.798;10.228;2023-09-19T04:58:43;2.28;;;1.10;;
26756;SDS011;23848;49.798;10.228;2023-09-19T05:01:12;2.20;;;1.20;;
26756;SDS011;23848;49.798;10.228;2023-09-19T05:03:41;2.40;;;1.00;;
26756;SDS011;23848;49.798;10.228;2023-09-19T05:06:11;1.63;;;1.02;;
26756;SDS011;23848;49.798;10.228;2023-09-19T05:08:40;1.60;;;1.00;;
26756;SDS011;23848;49.798;10.228;2023-09-19T05:11:09;3.72;;;1.25;;
26756;SDS011;23848;49.798;10.228;2023-09-19T05:13:37;3.80;;;1.00;;
26756;SDS011;23848;49.798;10.228;2023-09-19T05:16:06;2.17;;;1.30;;
26756;SDS011;23848;49.798;10.228;2023-09-19T05:18:36;1.65;;;1.10;;
26756;SDS011;23848;49.798;10.228;2023-09-19T05:21:05;2.35;;;1.13;;
26756;SDS011;23848;49.798;10.228;2023-09-19T05:23:34;1.80;;;0.80;;
26756;SDS011;23848;49.798;10.228;2023-09-19T05:26:05;1.35;;;0.73;;
26756;SDS011;23848;49.798;10.228;2023-09-19T05:28:33;2.85;;;0.90;;
26756;SDS011;23848;49.798;10.228;2023-09-19T05:31:02;1.90;;;1.05;;
26756;SDS011;23848;49.798;10.228;2023-09-19T05:33:30;2.05;;;1.10;;
26756;SDS011;23848;49.798;10.228;2023-09-19T05:35:59;3.08;;;1.20;;
26756;SDS011;23848;49.798;10.228;2023-09-19T05:38:28;1.80;;;0.88;;
26756;SDS011;23848;49.798;10.228;2023-09-19T05:40:56;2.60;;;0.98;;
26756;SDS011;23848;49.798;10.228;2023-09-19T05:43:26;2.45;;;0.85;;
26756;SDS011;23848;49.798;10.228;2023-09-19T05:45:54;1.55;;;0.85;;
26756;SDS011;23848;49.798;10.228;2023-09-19T05:48:23;2.97;;;1.13;;
26756;SDS011;23848;49.798;10.228;2023-09-19T05:50:51;1.45;;;0.90;;
26756;SDS011;23848;49.798;10.228;2023-09-19T05:53:20;1.50;;;0.80;;
26756;SDS011;23848;49.798;10.228;2023-09-19T05:55:49;2.28;;;0.90;;
26756;SDS011;23848;49.798;10.228;2023-09-19T05:58:19;1.75;;;0.98;;
26756;SDS011;23848;49.798;10.228;2023-09-19T06:00:50;4.00;;;1.08;;
26756;SDS011;23848;49.798;10.228;2023-09-19T06:03:19;2.03;;;0.80;;
26756;SDS011;23848;49.798;10.228;2023-09-19T06:05:47;2.22;;;1.02;;
26756;SDS011;23848;49.798;10.228;2023-09-19T06:08:16;3.10;;;1.20;;
26756;SDS011;23848;49.798;10.228;2023-09-19T06:10:44;3.00;;;1.10;;
26756;SDS011;23848;49.798;10.228;2023-09-19T06:13:13;3.00;;;1.23;;
26756;SDS011;23848;49.798;10.228;2023-09-19T06:15:41;1.63;;;0.80;;
26756;SDS011;23848;49.798;10.228;2023-09-19T06:18:11;3.58;;;1.00;;
26756;SDS011;23848;49.798;10.228;2023-09-19T06:20:46;2.83;;;1.13;;
26756;SDS011;23848;49.798;10.228;2023-09-19T06:23:15;1.95;;;1.05;;
26756;SDS011;23848;49.798;10.228;2023-09-19T06:25:46;1.75;;;1.08;;
26756;SDS011;23848;49.798;10.228;2023-09-19T06:28:14;2.78;;;1.50;;
26756;SDS011;23848;49.798;10.228;2023-09-19T06:30:46;1.80;;;0.98;;
26756;SDS011;23848;49.798;10.228;2023-09-19T06:33:16;1.60;;;0.93;;
26756;SDS011;23848;49.798;10.228;2023-09-19T06:35:47;1.52;;;0.95;;
26756;SDS011;23848;49.798;10.228;2023-09-19T06:38:15;2.10;;;1.35;;
26756;SDS011;23848;49.798;10.228;2023-09-19T06:40:45;4.43;;;1.33;;
26756;SDS011;23848;49.798;10.228;2023-09-19T06:43:14;2.38;;;1.45;;
26756;SDS011;23848;49.798;10.228;2023-09-19T06:45:42;1.95;;;1.30;;
26756;SDS011;23848;49.798;10.228;2023-09-19T06:48:10;2.50;;;1.50;;
26756;SDS011;23848;49.798;10.228;2023-09-19T06:50:40;3.85;;;1.90;;
26756;SDS011;23848;49.798;10.228;2023-09-19T06:53:10;2.50;;;1.70;;
26756;SDS011;23848;49.798;10.228;2023-09-19T06:55:38;2.90;;;1.80;;
26756;SDS011;23848;49.798;10.228;2023-09-19T06:58:07;2.40;;;1.35;;
26756;SDS011;23848;49.798;10.228;2023-09-19T07:00:37;2.50;;;1.80;;
26756;SDS011;23848;49.798;10.228;2023-09-19T07:03:05;2.47;;;1.50;;
26756;SDS011;23848;49.798;10.228;2023-09-19T07:05:40;2.42;;;1.48;;
26756;SDS011;23848;49.798;10.228;2023-09-19T07:08:09;2.75;;;1.73;;
26756;SDS011;23848;49.798;10.228;2023-09-19T07:10:39;3.22;;;1.70;;
26756;SDS011;23848;49.798;10.228;2023-09-19T07:13:09;3.70;;;1.70;;
26756;SDS011;23848;49.798;10.228;2023-09-19T07:15:39;3.97;;;1.40;;
26756;SDS011;23848;49.798;10.228;2023-09-19T07:18:13;2.83;;;1.63;;
26756;SDS011;23848;49.798;10.228;2023-09-19T07:20:44;3.70;;;1.75;;
26756;SDS011;23848;49.798;10.228;2023-09-19T07:23:16;2.00;;;1.40;;
26756;SDS011;23848;49.798;10.228;2023-09-19T07:25:44;1.98;;;1.15;;
26756;SDS011;23848;49.798;10.228;2023-09-19T07:28:14;3.80;;;1.73;;
26756;SDS011;23848;49.798;10.228;2023-09-19T07:30:42;4.68;;;2.05;;
26756;SDS011;23848;49.798;10.228;2023-09-19T07:33:10;4.90;;;2.15;;
26756;SDS011;23848;49.798;10.228;2023-09-19T07:35:39;4.22;;;2.20;;
26756;SDS011;23848;49.798;10.228;2023-09-19T07:38:09;5.25;;;2.33;;
26756;SDS011;23848;49.798;10.228;2023-09-19T07:40:38;2.85;;;1.63;;
26756;SDS011;23848;49.798;10.228;2023-09-19T07:43:06;2.88;;;1.38;;
26756;SDS011;23848;49.798;10.228;2023-09-19T07:45:35;2.42;;;1.38;;
26756;SDS011;23848;49.798;10.228;2023-09-19T07:48:03;3.67;;;1.42;;
26756;SDS011;23848;49.798;10.228;2023-09-19T07:50:40;2.30;;;1.30;;
26756;SDS011;23848;49.798;10.228;2023-09-19T07:53:11;2.90;;;1.70;;
26756;SDS011;23848;49.798;10.228;2023-09-19T07:55:40;3.35;;;2.05;;
26756;SDS011;23848;49.798;10.228;2023-09-19T07:58:09;4.20;;;1.75;;
26756;SDS011;23848;49.798;10.228;2023-09-19T08:00:37;2.88;;;1.52;;
26756;SDS011;23848;49.798;10.228;2023-09-19T08:03:05;2.33;;;1.20;;
26756;SDS011;23848;49.798;10.228;2023-09-19T08:05:43;2.13;;;1.20;;
26756;SDS011;23848;49.798;10.228;2023-09-19T08:08:13;2.20;;;1.25;;
26756;SDS011;23848;49.798;10.228;2023-09-19T08:10:42;2.28;;;1.33;;
26756;SDS011;23848;49.798;10.228;2023-09-19T08:13:12;2.60;;;1.38;;
26756;SDS011;23848;49.798;10.228;2023-09-19T08:15:42;2.53;;;1.30;;
26756;SDS011;23848;49.798;10.228;2023-09-19T08:18:11;2.78;;;1.33;;
26756;SDS011;23848;49.798;10.228;2023-09-19T08:20:40;3.08;;;1.60;;
26756;SDS011;23848;49.798;10.228;2023-09-19T08:23:08;2.50;;;1.20;;
26756;SDS011;23848;49.798;10.228;2023-09-19T08:25:38;2.15;;;1.27;;
26756;SDS011;23848;49.798;10.228;2023-09-19T08:28:06;1.92;;;1.20;;
26756;SDS011;23848;49.798;10.228;2023-09-19T08:30:38;2.00;;;1.30;;
26756;SDS011;23848;49.798;10.228;2023-09-19T08:33:07;3.90;;;1.27;;
26756;SDS011;23848;49.798;10.228;2023-09-19T08:35:35;3.28;;;1.23;;
26756;SDS011;23848;49.798;10.228;2023-09-19T08:38:04;2.85;;;1.08;;
26756;SDS011;23848;49.798;10.228;2023-09-19T08:40:32;2.50;;;1.23;;
26756;SDS011;23848;49.798;10.228;2023-09-19T08:43:02;1.80;;;1.00;;
26756;SDS011;23848;49.798;10.228;2023-09-19T08:45:30;3.08;;;1.58;;
26756;SDS011;23848;49.798;10.228;2023-09-19T08:48:01;2.53;;;1.10;;
26756;SDS011;23848;49.798;10.228;2023-09-19T08:50:31;1.50;;;0.80;;
26756;SDS011;23848;49.798;10.228;2023-09-19T08:53:01;2.35;;;0.90;;
26756;SDS011;23848;49.798;10.228;2023-09-19T08:55:36;1.75;;;1.00;;
26756;SDS011;23848;49.798;10.228;2023-09-19T08:58:08;2.65;;;0.98;;
26756;SDS011;23848;49.798;10.228;2023-09-19T09:00:39;2.33;;;1.00;;
26756;SDS011;23848;49.798;10.228;2023-09-19T09:03:10;1.80;;;1.00;;
26756;SDS011;23848;49.798;10.228;2023-09-19T09:05:38;2.97;;;1.10;;
26756;SDS011;23848;49.798;10.228;2023-09-19T09:08:12;1.90;;;1.00;;
26756;SDS011;23848;49.798;10.228;2023-09-19T09:10:43;1.17;;;0.63;;
26756;SDS011;23848;49.798;10.228;2023-09-19T09:13:13;1.58;;;0.90;;
26756;SDS011;23848;49.798;10.228;2023-09-19T09:15:42;2.72;;;0.88;;
26756;SDS011;23848;49.798;10.228;2023-09-19T09:18:11;1.52;;;0.90;;
26756;SDS011;23848;49.798;10.228;2023-09-19T09:20:39;2.95;;;1.10;;
26756;SDS011;23848;49.798;10.228;2023-09-19T09:23:08;3.33;;;1.05;;
26756;SDS011;23848;49.798;10.228;2023-09-19T09:25:49;1.63;;;0.88;;
26756;SDS011;23848;49.798;10.228;2023-09-19T09:28:22;1.75;;;0.80;;
26756;SDS011;23848;49.798;10.228;2023-09-19T09:30:51;1.35;;;0.73;;
26756;SDS011;23848;49.798;10.228;2023-09-19T09:33:20;3.95;;;1.02;;
26756;SDS011;23848;49.798;10.228;2023-09-19T09:35:50;1.88;;;0.88;;
26756;SDS011;23848;49.798;10.228;2023-09-19T09:38:22;1.77;;;0.90;;
26756;SDS011;23848;49.798;10.228;2023-09-19T09:40:54;2.25;;;0.93;;
26756;SDS011;23848;49.798;10.228;2023-09-19T09:43:30;2.58;;;1.10;;
26756;SDS011;23848;49.798;10.228;2023-09-19T09:48:36;1.75;;;0.80;;
26756;SDS011;23848;49.798;10.228;2023-09-19T09:51:08;1.85;;;1.00;;
26756;SDS011;23848;49.798;10.228;2023-09-19T09:53:43;1.73;;;0.77;;
26756;SDS011;23848;49.798;10.228;2023-09-19T09:56:12;2.42;;;0.70;;
26756;SDS011;23848;49.798;10.228;2023-09-19T09:58:52;1.02;;;0.57;;
26756;SDS011;23848;49.798;10.228;2023-09-19T10:01:25;2.57;;;1.10;;
26756;SDS011;23848;49.798;10.228;2023-09-19T10:03:57;1.70;;;0.88;;
26756;SDS011;23848;49.798;10.228;2023-09-19T10:06:39;1.52;;;0.77;;
26756;SDS011;23848;49.798;10.228;2023-09-19T10:09:13;1.88;;;1.17;;
26756;SDS011;23848;49.798;10.228;2023-09-19T10:11:47;1.73;;;1.13;;
26756;SDS011;23848;49.798;10.228;2023-09-19T10:14:24;4.38;;;1.23;;
26756;SDS011;23848;49.798;10.228;2023-09-19T10:16:55;2.30;;;0.88;;
26756;SDS011;23848;49.798;10.228;2023-09-19T10:19:32;2.30;;;0.70;;
26756;SDS011;23848;49.798;10.228;2023-09-19T10:22:02;1.02;;;0.60;;
26756;SDS011;23848;49.798;10.228;2023-09-19T10:24:31;2.05;;;1.10;;
26756;SDS011;23848;49.798;10.228;2023-09-19T10:27:14;1.70;;;1.00;;
26756;SDS011;23848;49.798;10.228;2023-09-19T10:29:48;2.10;;;1.33;;
26756;SDS011;23848;49.798;10.228;2023-09-19T10:32:17;1.85;;;0.88;;
26756;SDS011;23848;49.798;10.228;2023-09-19T10:34:46;1.90;;;0.90;;
26756;SDS011;23848;49.798;10.228;2023-09-19T10:37:15;1.73;;;0.80;;
26756;SDS011;23848;49.798;10.228;2023-09-19T10:39:45;1.30;;;0.80;;
26756;SDS011;23848;49.798;10.228;2023-09-19T10:42:14;1.65;;;0.75;;
26756;SDS011;23848;49.798;10.228;2023-09-19T10:44:44;2.83;;;1.17;;
26756;SDS011;23848;49.798;10.228;2023-09-19T10:47:14;2.47;;;1.20;;
26756;SDS011;23848;49.798;10.228;2023-09-19T10:49:45;4.18;;;1.13;;
26756;SDS011;23848;49.798;10.228;2023-09-19T10:52:15;2.22;;;1.15;;
26756;SDS011;23848;49.798;10.228;2023-09-19T10:54:45;2.20;;;1.10;;
26756;SDS011;23848;49.798;10.228;2023-09-19T10:57:18;3.00;;;0.90;;
26756;SDS011;23848;49.798;10.228;2023-09-19T11:00:00;2.67;;;0.95;;
26756;SDS011;23848;49.798;10.228;2023-09-19T11:05:37;2.45;;;1.45;;
26756;SDS011;23848;49.798;10.228;2023-09-19T11:08:07;2.25;;;1.33;;
26756;SDS011;23848;49.798;10.228;2023-09-19T11:10:45;2.03;;;1.20;;
26756;SDS011;23848;49.798;10.228;2023-09-19T11:13:26;2.58;;;1.00;;
26756;SDS011;23848;49.798;10.228;2023-09-19T11:24:29;1.92;;;0.93;;
26756;SDS011;23848;49.798;10.228;2023-09-19T11:27:09;4.07;;;1.10;;
26756;SDS011;23848;49.798;10.228;2023-09-19T11:29:40;2.67;;;0.98;;
26756;SDS011;23848;49.798;10.228;2023-09-19T11:32:08;2.28;;;0.98;;
26756;SDS011;23848;49.798;10.228;2023-09-19T11:34:40;2.55;;;1.25;;
26756;SDS011;23848;49.798;10.228;2023-09-19T11:40:07;1.92;;;1.00;;
26756;SDS011;23848;49.798;10.228;2023-09-19T11:42:42;1.90;;;1.02;;
26756;SDS011;23848;49.798;10.228;2023-09-19T11:48:07;1.98;;;1.15;;
26756;SDS011;23848;49.798;10.228;2023-09-19T11:50:39;3.42;;;1.20;;
26756;SDS011;23848;49.798;10.228;2023-09-19T11:53:10;1.30;;;0.80;;
26756;SDS011;23848;49.798;10.228;2023-09-19T11:55:41;3.08;;;1.05;;
26756;SDS011;23848;49.798;10.228;2023-09-19T11:58:10;1.35;;;0.80;;
26756;SDS011;23848;49.798;10.228;2023-09-19T12:00:40;2.20;;;0.93;;
26756;SDS011;23848;49.798;10.228;2023-09-19T12:03:11;1.52;;;0.80;;
26756;SDS011;23848;49.798;10.228;2023-09-19T12:05:40;1.75;;;0.70;;
26756;SDS011;23848;49.798;10.228;2023-09-19T12:08:09;1.65;;;0.85;;
26756;SDS011;23848;49.798;10.228;2023-09-19T12:10:46;2.08;;;1.05;;
26756;SDS011;23848;49.798;10.228;2023-09-19T12:13:16;1.67;;;0.88;;
26756;SDS011;23848;49.798;10.228;2023-09-19T12:15:44;1.52;;;0.80;;
26756;SDS011;23848;49.798;10.228;2023-09-19T12:18:26;1.50;;;0.50;;
26756;SDS011;23848;49.798;10.228;2023-09-19T12:20:56;1.90;;;1.00;;
26756;SDS011;23848;49.798;10.228;2023-09-19T12:23:25;2.67;;;0.85;;
26756;SDS011;23848;49.798;10.228;2023-09-19T12:25:55;2.67;;;0.70;;
26756;SDS011;23848;49.798;10.228;2023-09-19T12:28:26;2.53;;;0.82;;
26756;SDS011;23848;49.798;10.228;2023-09-19T12:31:06;2.25;;;0.90;;
26756;SDS011;23848;49.798;10.228;2023-09-19T12:33:34;2.13;;;0.60;;
26756;SDS011;23848;49.798;10.228;2023-09-19T12:38:47;2.90;;;0.98;;
26756;SDS011;23848;49.798;10.228;2023-09-19T12:41:17;2.50;;;0.70;;
26756;SDS011;23848;49.798;10.228;2023-09-19T12:43:47;1.02;;;0.43;;
26756;SDS011;23848;49.798;10.228;2023-09-19T12:46:19;1.48;;;0.77;;
26756;SDS011;23848;49.798;10.228;2023-09-19T12:51:35;1.77;;;0.80;;
26756;SDS011;23848;49.798;10.228;2023-09-19T12:54:03;1.83;;;0.70;;
26756;SDS011;23848;49.798;10.228;2023-09-19T12:56:40;1.30;;;0.60;;
26756;SDS011;23848;49.798;10.228;2023-09-19T12:59:12;1.02;;;0.40;;
26756;SDS011;23848;49.798;10.228;2023-09-19T13:01:41;1.25;;;0.60;;
26756;SDS011;23848;49.798;10.228;2023-09-19T13:04:13;2.90;;;0.73;;
26756;SDS011;23848;49.798;10.228;2023-09-19T13:06:45;1.48;;;0.70;;
26756;SDS011;23848;49.798;10.228;2023-09-19T13:09:15;1.17;;;0.60;;
26756;SDS011;23848;49.798;10.228;2023-09-19T13:11:45;2.00;;;0.70;;
26756;SDS011;23848;49.798;10.228;2023-09-19T13:14:17;2.40;;;0.90;;
26756;SDS011;23848;49.798;10.228;2023-09-19T13:16:55;1.70;;;0.70;;
26756;SDS011;23848;49.798;10.228;2023-09-19T13:25:03;1.20;;;0.70;;
26756;SDS011;23848;49.798;10.228;2023-09-19T13:27:34;1.77;;;1.00;;
26756;SDS011;23848;49.798;10.228;2023-09-19T13:30:02;2.20;;;1.08;;
26756;SDS011;23848;49.798;10.228;2023-09-19T13:32:31;2.63;;;0.90;;
26756;SDS011;23848;49.798;10.228;2023-09-19T13:35:00;1.90;;;0.75;;
26756;SDS011;23848;49.798;10.228;2023-09-19T13:37:28;1.40;;;0.70;;
26756;SDS011;23848;49.798;10.228;2023-09-19T13:39:57;1.15;;;0.63;;
26756;SDS011;23848;49.798;10.228;2023-09-19T13:42:26;1.90;;;0.90;;
26756;SDS011;23848;49.798;10.228;2023-09-19T13:44:57;1.75;;;0.90;;
26756;SDS011;23848;49.798;10.228;2023-09-19T13:47:25;1.58;;;0.70;;
26756;SDS011;23848;49.798;10.228;2023-09-19T13:49:55;1.55;;;1.10;;
26756;SDS011;23848;49.798;10.228;2023-09-19T13:52:23;1.83;;;0.95;;
26756;SDS011;23848;49.798;10.228;2023-09-19T13:54:54;1.52;;;0.73;;
26756;SDS011;23848;49.798;10.228;2023-09-19T13:57:23;3.40;;;1.42;;
26756;SDS011;23848;49.798;10.228;2023-09-19T13:59:52;1.23;;;0.55;;
26756;SDS011;23848;49.798;10.228;2023-09-19T14:02:22;1.92;;;0.80;;
26756;SDS011;23848;49.798;10.228;2023-09-19T14:04:51;1.50;;;0.70;;
26756;SDS011;23848;49.798;10.228;2023-09-19T14:07:20;1.58;;;0.65;;
26756;SDS011;23848;49.798;10.228;2023-09-19T14:09:48;1.52;;;1.02;;
26756;SDS011;23848;49.798;10.228;2023-09-19T14:12:17;1.85;;;0.93;;
26756;SDS011;23848;49.798;10.228;2023-09-19T14:14:45;1.48;;;0.50;;
26756;SDS011;23848;49.798;10.228;2023-09-19T14:17:14;1.45;;;0.50;;
26756;SDS011;23848;49.798;10.228;2023-09-19T14:19:43;2.92;;;0.70;;
26756;SDS011;23848;49.798;10.228;2023-09-19T14:22:12;1.05;;;0.60;;
26756;SDS011;23848;49.798;10.228;2023-09-19T14:24:40;2.28;;;0.70;;
26756;SDS011;23848;49.798;10.228;2023-09-19T14:27:09;2.72;;;0.70;;
26756;SDS011;23848;49.798;10.228;2023-09-19T14:29:37;1.15;;;0.60;;
26756;SDS011;23848;49.798;10.228;2023-09-19T14:32:05;2.35;;;0.60;;
26756;SDS011;23848;49.798;10.228;2023-09-19T14:34:34;1.48;;;0.57;;
26756;SDS011;23848;49.798;10.228;2023-09-19T14:37:09;1.77;;;0.80;;
26756;SDS011;23848;49.798;10.228;2023-09-19T14:39:38;1.65;;;0.60;;
26756;SDS011;23848;49.798;10.228;2023-09-19T14:42:06;1.10;;;0.60;;
26756;SDS011;23848;49.798;10.228;2023-09-19T14:44:35;1.48;;;0.52;;
26756;SDS011;23848;49.798;10.228;2023-09-19T14:47:03;1.77;;;0.80;;
26756;SDS011;23848;49.798;10.228;2023-09-19T14:49:33;1.60;;;0.55;;
26756;SDS011;23848;49.798;10.228;2023-09-19T14:52:06;2.38;;;0.80;;
26756;SDS011;23848;49.798;10.228;2023-09-19T14:54:36;1.27;;;0.50;;
26756;SDS011;23848;49.798;10.228;2023-09-19T14:57:07;2.53;;;0.47;;
26756;SDS011;23848;49.798;10.228;2023-09-19T14:59:36;2.03;;;0.60;;
26756;SDS011;23848;49.798;10.228;2023-09-19T15:02:04;1.63;;;0.70;;
26756;SDS011;23848;49.798;10.228;2023-09-19T15:04:33;1.10;;;0.47;;
26756;SDS011;23848;49.798;10.228;2023-09-19T15:07:02;1.50;;;0.50;;
26756;SDS011;23848;49.798;10.228;2023-09-19T15:09:30;0.95;;;0.50;;
26756;SDS011;23848;49.798;10.228;2023-09-19T15:12:01;1.52;;;0.60;;
26756;SDS011;23848;49.798;10.228;2023-09-19T15:14:29;2.63;;;1.13;;
26756;SDS011;23848;49.798;10.228;2023-09-19T15:16:57;1.17;;;0.50;;
26756;SDS011;23848;49.798;10.228;2023-09-19T15:19:26;2.63;;;0.80;;
26756;SDS011;23848;49.798;10.228;2023-09-19T15:21:54;1.25;;;0.57;;
26756;SDS011;23848;49.798;10.228;2023-09-19T15:24:23;1.75;;;0.75;;